Airport View

Enter AWOS ICAO identifier for current METAR.

ex. KFNL

KDTW 011053Z 21006KT 10SM FEW035 FEW150 SCT220 07/06 A2987 RMK AO2 SLP116 T00720056 $

1 Oct 2020 11:31

Frequency: 133.675

Phone: 734-955-5015

Other Area AWOS: KYIP - KARB - KONZ - KTTF

TAF AMD KDTW 010913Z 0109/0212 24006KT P6SM SCT045 SCT060 FM011500 26011KT P6SM -SHRA BKN045 TEMPO 0119/0122 3SM TSRA BR SCT035 OVC045CB FM012200 30010KT P6SM -SHRA SCT028 OVC040 FM020300 34012KT P6SM OVC022 FM020800 32008KT P6SM SCT030